sensor_id;sensor_type;location;lat;lon;timestamp;P1;durP1;ratioP1;P2;durP2;ratioP2
5133;SDS011;2585;48.696;10.066;2022-12-07T00:01:13;10.50;;;7.70;;
5133;SDS011;2585;48.696;10.066;2022-12-07T00:03:43;12.25;;;9.07;;
5133;SDS011;2585;48.696;10.066;2022-12-07T00:06:13;11.38;;;7.68;;
5133;SDS011;2585;48.696;10.066;2022-12-07T00:08:40;12.65;;;7.82;;
5133;SDS011;2585;48.696;10.066;2022-12-07T00:11:11;10.05;;;7.45;;
5133;SDS011;2585;48.696;10.066;2022-12-07T00:13:41;10.45;;;7.50;;
5133;SDS011;2585;48.696;10.066;2022-12-07T00:16:09;13.20;;;8.80;;
5133;SDS011;2585;48.696;10.066;2022-12-07T00:18:41;12.00;;;7.78;;
5133;SDS011;2585;48.696;10.066;2022-12-07T00:21:10;10.73;;;7.70;;
5133;SDS011;2585;48.696;10.066;2022-12-07T00:23:37;9.80;;;7.07;;
5133;SDS011;2585;48.696;10.066;2022-12-07T00:26:05;9.75;;;7.35;;
5133;SDS011;2585;48.696;10.066;2022-12-07T00:28:47;10.60;;;7.60;;
5133;SDS011;2585;48.696;10.066;2022-12-07T00:31:15;10.68;;;7.75;;
5133;SDS011;2585;48.696;10.066;2022-12-07T00:33:43;9.93;;;7.47;;
5133;SDS011;2585;48.696;10.066;2022-12-07T00:36:12;10.57;;;7.65;;
5133;SDS011;2585;48.696;10.066;2022-12-07T00:38:40;11.27;;;8.73;;
5133;SDS011;2585;48.696;10.066;2022-12-07T00:41:10;11.35;;;7.75;;
5133;SDS011;2585;48.696;10.066;2022-12-07T00:43:42;11.70;;;8.07;;
5133;SDS011;2585;48.696;10.066;2022-12-07T00:46:09;11.07;;;7.93;;
5133;SDS011;2585;48.696;10.066;2022-12-07T00:48:37;11.52;;;8.00;;
5133;SDS011;2585;48.696;10.066;2022-12-07T00:51:04;13.82;;;8.43;;
5133;SDS011;2585;48.696;10.066;2022-12-07T00:53:35;11.27;;;8.27;;
5133;SDS011;2585;48.696;10.066;2022-12-07T00:58:34;12.23;;;9.63;;
5133;SDS011;2585;48.696;10.066;2022-12-07T01:01:01;12.73;;;8.50;;
5133;SDS011;2585;48.696;10.066;2022-12-07T01:03:29;11.23;;;8.40;;
5133;SDS011;2585;48.696;10.066;2022-12-07T01:05:56;12.10;;;8.63;;
5133;SDS011;2585;48.696;10.066;2022-12-07T01:08:24;12.32;;;8.90;;
5133;SDS011;2585;48.696;10.066;2022-12-07T01:11:02;13.02;;;9.00;;
5133;SDS011;2585;48.696;10.066;2022-12-07T01:13:31;14.13;;;8.25;;
5133;SDS011;2585;48.696;10.066;2022-12-07T01:16:01;16.60;;;9.93;;
5133;SDS011;2585;48.696;10.066;2022-12-07T01:18:30;14.85;;;9.68;;
5133;SDS011;2585;48.696;10.066;2022-12-07T01:21:02;12.35;;;8.73;;
5133;SDS011;2585;48.696;10.066;2022-12-07T01:23:30;13.10;;;8.55;;
5133;SDS011;2585;48.696;10.066;2022-12-07T01:25:57;11.05;;;8.50;;
5133;SDS011;2585;48.696;10.066;2022-12-07T01:28:26;11.88;;;8.88;;
5133;SDS011;2585;48.696;10.066;2022-12-07T01:30:57;14.60;;;9.60;;
5133;SDS011;2585;48.696;10.066;2022-12-07T01:33:27;15.30;;;10.50;;
5133;SDS011;2585;48.696;10.066;2022-12-07T01:36:00;12.65;;;9.02;;
5133;SDS011;2585;48.696;10.066;2022-12-07T01:38:30;13.77;;;9.82;;
5133;SDS011;2585;48.696;10.066;2022-12-07T01:40:58;13.52;;;9.02;;
5133;SDS011;2585;48.696;10.066;2022-12-07T01:43:26;13.45;;;9.02;;
5133;SDS011;2585;48.696;10.066;2022-12-07T01:45:54;13.57;;;8.93;;
5133;SDS011;2585;48.696;10.066;2022-12-07T01:48:24;14.48;;;9.77;;
5133;SDS011;2585;48.696;10.066;2022-12-07T01:51:01;14.25;;;9.45;;
5133;SDS011;2585;48.696;10.066;2022-12-07T01:53:31;12.93;;;8.23;;
5133;SDS011;2585;48.696;10.066;2022-12-07T01:56:01;13.50;;;9.68;;
5133;SDS011;2585;48.696;10.066;2022-12-07T01:58:28;14.50;;;9.90;;
5133;SDS011;2585;48.696;10.066;2022-12-07T02:00:55;12.25;;;8.40;;
5133;SDS011;2585;48.696;10.066;2022-12-07T02:03:23;11.00;;;8.43;;
5133;SDS011;2585;48.696;10.066;2022-12-07T02:05:55;13.88;;;9.23;;
5133;SDS011;2585;48.696;10.066;2022-12-07T02:08:23;15.50;;;9.85;;
5133;SDS011;2585;48.696;10.066;2022-12-07T02:10:50;11.80;;;8.57;;
5133;SDS011;2585;48.696;10.066;2022-12-07T02:13:19;14.90;;;9.63;;
5133;SDS011;2585;48.696;10.066;2022-12-07T02:21:24;12.52;;;9.25;;
5133;SDS011;2585;48.696;10.066;2022-12-07T02:30:08;11.98;;;8.35;;
5133;SDS011;2585;48.696;10.066;2022-12-07T02:32:44;12.27;;;8.48;;
5133;SDS011;2585;48.696;10.066;2022-12-07T02:35:19;12.68;;;8.80;;
5133;SDS011;2585;48.696;10.066;2022-12-07T02:40:45;13.18;;;9.10;;
5133;SDS011;2585;48.696;10.066;2022-12-07T02:43:34;10.90;;;8.50;;
5133;SDS011;2585;48.696;10.066;2022-12-07T02:46:05;13.85;;;9.00;;
5133;SDS011;2585;48.696;10.066;2022-12-07T02:48:38;15.20;;;9.48;;
5133;SDS011;2585;48.696;10.066;2022-12-07T02:51:07;15.13;;;9.80;;
5133;SDS011;2585;48.696;10.066;2022-12-07T02:53:38;11.50;;;8.82;;
5133;SDS011;2585;48.696;10.066;2022-12-07T03:16:58;13.57;;;8.70;;
5133;SDS011;2585;48.696;10.066;2022-12-07T03:19:14;12.82;;;7.75;;
5133;SDS011;2585;48.696;10.066;2022-12-07T03:21:47;11.73;;;7.90;;
5133;SDS011;2585;48.696;10.066;2022-12-07T03:24:20;11.40;;;7.55;;
5133;SDS011;2585;48.696;10.066;2022-12-07T03:26:55;12.02;;;7.95;;
5133;SDS011;2585;48.696;10.066;2022-12-07T03:29:30;13.25;;;8.02;;
5133;SDS011;2585;48.696;10.066;2022-12-07T03:34:43;11.95;;;8.15;;
5133;SDS011;2585;48.696;10.066;2022-12-07T03:37:17;14.15;;;8.32;;
5133;SDS011;2585;48.696;10.066;2022-12-07T03:39:58;13.43;;;8.68;;
5133;SDS011;2585;48.696;10.066;2022-12-07T03:42:37;14.02;;;8.20;;
5133;SDS011;2585;48.696;10.066;2022-12-07T03:45:04;13.93;;;9.48;;
5133;SDS011;2585;48.696;10.066;2022-12-07T03:47:34;11.98;;;8.10;;
5133;SDS011;2585;48.696;10.066;2022-12-07T03:53:12;13.63;;;8.70;;
5133;SDS011;2585;48.696;10.066;2022-12-07T03:55:43;15.60;;;9.05;;
5133;SDS011;2585;48.696;10.066;2022-12-07T03:58:16;13.80;;;8.95;;
5133;SDS011;2585;48.696;10.066;2022-12-07T04:00:45;12.35;;;8.38;;
5133;SDS011;2585;48.696;10.066;2022-12-07T04:03:13;12.45;;;8.05;;
5133;SDS011;2585;48.696;10.066;2022-12-07T04:05:40;16.75;;;8.88;;
5133;SDS011;2585;48.696;10.066;2022-12-07T04:08:08;16.83;;;9.05;;
5133;SDS011;2585;48.696;10.066;2022-12-07T04:10:35;13.55;;;8.70;;
5133;SDS011;2585;48.696;10.066;2022-12-07T04:13:02;12.48;;;8.95;;
5133;SDS011;2585;48.696;10.066;2022-12-07T04:15:29;11.85;;;7.85;;
5133;SDS011;2585;48.696;10.066;2022-12-07T04:17:55;13.05;;;9.00;;
5133;SDS011;2585;48.696;10.066;2022-12-07T04:20:22;12.38;;;8.45;;
5133;SDS011;2585;48.696;10.066;2022-12-07T04:22:50;12.57;;;8.88;;
5133;SDS011;2585;48.696;10.066;2022-12-07T04:25:16;12.05;;;7.82;;
5133;SDS011;2585;48.696;10.066;2022-12-07T04:27:43;12.98;;;9.23;;
5133;SDS011;2585;48.696;10.066;2022-12-07T04:30:10;12.13;;;8.13;;
5133;SDS011;2585;48.696;10.066;2022-12-07T04:32:37;14.57;;;8.75;;
5133;SDS011;2585;48.696;10.066;2022-12-07T04:35:04;13.40;;;8.65;;
5133;SDS011;2585;48.696;10.066;2022-12-07T04:37:31;18.48;;;8.88;;
5133;SDS011;2585;48.696;10.066;2022-12-07T04:39:58;14.05;;;9.20;;
5133;SDS011;2585;48.696;10.066;2022-12-07T04:42:26;12.55;;;9.00;;
5133;SDS011;2585;48.696;10.066;2022-12-07T04:44:52;14.55;;;8.70;;
5133;SDS011;2585;48.696;10.066;2022-12-07T04:47:19;14.50;;;8.38;;
5133;SDS011;2585;48.696;10.066;2022-12-07T04:49:46;20.67;;;8.35;;
5133;SDS011;2585;48.696;10.066;2022-12-07T04:52:13;14.82;;;9.07;;
5133;SDS011;2585;48.696;10.066;2022-12-07T04:54:39;15.65;;;9.70;;
5133;SDS011;2585;48.696;10.066;2022-12-07T04:57:06;14.02;;;8.40;;
5133;SDS011;2585;48.696;10.066;2022-12-07T04:59:33;13.63;;;8.68;;
5133;SDS011;2585;48.696;10.066;2022-12-07T05:01:59;13.38;;;9.23;;
5133;SDS011;2585;48.696;10.066;2022-12-07T05:04:26;15.18;;;10.48;;
5133;SDS011;2585;48.696;10.066;2022-12-07T05:06:53;16.70;;;11.20;;
5133;SDS011;2585;48.696;10.066;2022-12-07T05:09:20;16.27;;;10.20;;
5133;SDS011;2585;48.696;10.066;2022-12-07T05:11:47;14.95;;;8.95;;
5133;SDS011;2585;48.696;10.066;2022-12-07T05:14:18;15.07;;;9.07;;
5133;SDS011;2585;48.696;10.066;2022-12-07T05:16:47;14.65;;;9.48;;
5133;SDS011;2585;48.696;10.066;2022-12-07T05:19:16;14.60;;;9.30;;
5133;SDS011;2585;48.696;10.066;2022-12-07T05:21:44;17.48;;;9.80;;
5133;SDS011;2585;48.696;10.066;2022-12-07T05:24:12;17.60;;;9.82;;
5133;SDS011;2585;48.696;10.066;2022-12-07T05:26:40;14.55;;;9.75;;
5133;SDS011;2585;48.696;10.066;2022-12-07T05:29:09;16.00;;;10.13;;
5133;SDS011;2585;48.696;10.066;2022-12-07T05:31:38;15.02;;;9.45;;
5133;SDS011;2585;48.696;10.066;2022-12-07T05:34:05;13.70;;;9.60;;
5133;SDS011;2585;48.696;10.066;2022-12-07T05:36:31;16.52;;;10.77;;
5133;SDS011;2585;48.696;10.066;2022-12-07T05:38:58;15.10;;;10.35;;
5133;SDS011;2585;48.696;10.066;2022-12-07T05:41:25;16.83;;;11.02;;
5133;SDS011;2585;48.696;10.066;2022-12-07T05:44:11;15.57;;;10.60;;
5133;SDS011;2585;48.696;10.066;2022-12-07T05:46:37;18.00;;;11.40;;
5133;SDS011;2585;48.696;10.066;2022-12-07T05:49:04;17.63;;;10.48;;
5133;SDS011;2585;48.696;10.066;2022-12-07T05:51:31;16.50;;;10.13;;
5133;SDS011;2585;48.696;10.066;2022-12-07T05:53:58;17.55;;;10.88;;
5133;SDS011;2585;48.696;10.066;2022-12-07T05:56:24;15.85;;;9.65;;
5133;SDS011;2585;48.696;10.066;2022-12-07T05:58:53;16.88;;;10.40;;
5133;SDS011;2585;48.696;10.066;2022-12-07T06:01:38;16.63;;;10.65;;
5133;SDS011;2585;48.696;10.066;2022-12-07T06:04:05;17.85;;;11.07;;
5133;SDS011;2585;48.696;10.066;2022-12-07T06:06:35;20.00;;;12.65;;
5133;SDS011;2585;48.696;10.066;2022-12-07T06:09:05;22.98;;;11.98;;
5133;SDS011;2585;48.696;10.066;2022-12-07T06:11:31;22.65;;;12.35;;
5133;SDS011;2585;48.696;10.066;2022-12-07T06:14:17;20.50;;;12.43;;
5133;SDS011;2585;48.696;10.066;2022-12-07T06:16:44;25.58;;;13.38;;
5133;SDS011;2585;48.696;10.066;2022-12-07T06:19:11;23.05;;;13.50;;
5133;SDS011;2585;48.696;10.066;2022-12-07T06:21:38;23.75;;;12.98;;
5133;SDS011;2585;48.696;10.066;2022-12-07T06:24:05;22.85;;;13.07;;
5133;SDS011;2585;48.696;10.066;2022-12-07T06:26:32;22.30;;;13.20;;
5133;SDS011;2585;48.696;10.066;2022-12-07T06:28:59;21.35;;;11.93;;
5133;SDS011;2585;48.696;10.066;2022-12-07T06:31:25;20.42;;;13.45;;
5133;SDS011;2585;48.696;10.066;2022-12-07T06:33:56;25.48;;;13.85;;
5133;SDS011;2585;48.696;10.066;2022-12-07T06:36:27;24.60;;;14.35;;
5133;SDS011;2585;48.696;10.066;2022-12-07T06:38:54;22.55;;;13.30;;
5133;SDS011;2585;48.696;10.066;2022-12-07T06:41:22;22.85;;;13.07;;
5133;SDS011;2585;48.696;10.066;2022-12-07T06:43:49;23.83;;;14.25;;
5133;SDS011;2585;48.696;10.066;2022-12-07T06:46:21;25.77;;;15.40;;
5133;SDS011;2585;48.696;10.066;2022-12-07T06:48:48;25.35;;;13.95;;
5133;SDS011;2585;48.696;10.066;2022-12-07T06:51:15;24.15;;;14.38;;
5133;SDS011;2585;48.696;10.066;2022-12-07T06:53:42;24.05;;;14.35;;
5133;SDS011;2585;48.696;10.066;2022-12-07T06:56:09;21.02;;;12.90;;
5133;SDS011;2585;48.696;10.066;2022-12-07T06:58:36;24.10;;;14.15;;
5133;SDS011;2585;48.696;10.066;2022-12-07T07:01:07;24.25;;;12.60;;
5133;SDS011;2585;48.696;10.066;2022-12-07T07:03:43;20.02;;;12.07;;
5133;SDS011;2585;48.696;10.066;2022-12-07T07:06:10;21.02;;;12.55;;
5133;SDS011;2585;48.696;10.066;2022-12-07T07:08:38;18.38;;;11.60;;
5133;SDS011;2585;48.696;10.066;2022-12-07T07:11:05;23.35;;;13.35;;
5133;SDS011;2585;48.696;10.066;2022-12-07T07:13:33;19.55;;;12.00;;
5133;SDS011;2585;48.696;10.066;2022-12-07T07:16:00;21.30;;;13.40;;
5133;SDS011;2585;48.696;10.066;2022-12-07T07:18:27;21.92;;;13.10;;
5133;SDS011;2585;48.696;10.066;2022-12-07T07:20:54;22.52;;;13.43;;
5133;SDS011;2585;48.696;10.066;2022-12-07T07:23:21;21.52;;;13.15;;
5133;SDS011;2585;48.696;10.066;2022-12-07T07:25:48;19.67;;;12.30;;
5133;SDS011;2585;48.696;10.066;2022-12-07T07:28:15;22.30;;;12.82;;
5133;SDS011;2585;48.696;10.066;2022-12-07T07:30:43;21.23;;;12.07;;
5133;SDS011;2585;48.696;10.066;2022-12-07T07:33:10;23.55;;;11.55;;
5133;SDS011;2585;48.696;10.066;2022-12-07T07:35:37;21.17;;;12.60;;
5133;SDS011;2585;48.696;10.066;2022-12-07T07:38:05;21.63;;;11.13;;
5133;SDS011;2585;48.696;10.066;2022-12-07T07:40:33;17.60;;;11.13;;
5133;SDS011;2585;48.696;10.066;2022-12-07T07:43:00;19.00;;;11.23;;
5133;SDS011;2585;48.696;10.066;2022-12-07T07:45:27;16.00;;;9.45;;
5133;SDS011;2585;48.696;10.066;2022-12-07T07:47:54;18.45;;;10.85;;
5133;SDS011;2585;48.696;10.066;2022-12-07T07:50:21;13.20;;;8.70;;
5133;SDS011;2585;48.696;10.066;2022-12-07T07:52:48;17.20;;;9.80;;
5133;SDS011;2585;48.696;10.066;2022-12-07T07:55:14;13.82;;;8.20;;
5133;SDS011;2585;48.696;10.066;2022-12-07T07:57:42;12.95;;;9.10;;
5133;SDS011;2585;48.696;10.066;2022-12-07T08:00:15;14.00;;;8.93;;
5133;SDS011;2585;48.696;10.066;2022-12-07T08:02:43;11.23;;;7.40;;
5133;SDS011;2585;48.696;10.066;2022-12-07T08:05:10;12.38;;;7.28;;
5133;SDS011;2585;48.696;10.066;2022-12-07T08:07:38;10.48;;;6.85;;
5133;SDS011;2585;48.696;10.066;2022-12-07T08:10:05;12.82;;;8.05;;
5133;SDS011;2585;48.696;10.066;2022-12-07T08:12:35;13.50;;;7.60;;
5133;SDS011;2585;48.696;10.066;2022-12-07T08:15:03;10.27;;;6.47;;
5133;SDS011;2585;48.696;10.066;2022-12-07T08:17:30;9.05;;;5.93;;
5133;SDS011;2585;48.696;10.066;2022-12-07T08:19:58;11.93;;;7.10;;
5133;SDS011;2585;48.696;10.066;2022-12-07T08:22:26;11.02;;;6.70;;
5133;SDS011;2585;48.696;10.066;2022-12-07T08:24:53;11.00;;;6.97;;
5133;SDS011;2585;48.696;10.066;2022-12-07T08:27:19;8.43;;;5.63;;
5133;SDS011;2585;48.696;10.066;2022-12-07T08:29:46;9.80;;;6.47;;
5133;SDS011;2585;48.696;10.066;2022-12-07T08:32:13;8.88;;;5.85;;
5133;SDS011;2585;48.696;10.066;2022-12-07T08:34:40;17.00;;;6.85;;
5133;SDS011;2585;48.696;10.066;2022-12-07T08:37:07;8.20;;;5.65;;
5133;SDS011;2585;48.696;10.066;2022-12-07T08:39:33;11.40;;;6.55;;
5133;SDS011;2585;48.696;10.066;2022-12-07T08:42:01;10.35;;;6.10;;
5133;SDS011;2585;48.696;10.066;2022-12-07T08:44:27;8.85;;;5.97;;
5133;SDS011;2585;48.696;10.066;2022-12-07T08:46:56;9.93;;;6.03;;
5133;SDS011;2585;48.696;10.066;2022-12-07T08:49:33;10.65;;;6.10;;
5133;SDS011;2585;48.696;10.066;2022-12-07T08:52:05;9.60;;;6.25;;
5133;SDS011;2585;48.696;10.066;2022-12-07T08:54:33;13.45;;;7.68;;
5133;SDS011;2585;48.696;10.066;2022-12-07T08:57:02;9.88;;;6.25;;
5133;SDS011;2585;48.696;10.066;2022-12-07T08:59:29;10.43;;;7.03;;
5133;SDS011;2585;48.696;10.066;2022-12-07T09:01:56;11.80;;;7.25;;
5133;SDS011;2585;48.696;10.066;2022-12-07T09:04:23;9.70;;;6.72;;
5133;SDS011;2585;48.696;10.066;2022-12-07T09:06:50;10.13;;;6.32;;
5133;SDS011;2585;48.696;10.066;2022-12-07T09:09:17;13.88;;;6.32;;
5133;SDS011;2585;48.696;10.066;2022-12-07T09:11:44;7.75;;;6.07;;
5133;SDS011;2585;48.696;10.066;2022-12-07T09:14:11;10.07;;;6.53;;
5133;SDS011;2585;48.696;10.066;2022-12-07T09:16:38;14.50;;;7.32;;
5133;SDS011;2585;48.696;10.066;2022-12-07T09:19:05;14.00;;;7.95;;
5133;SDS011;2585;48.696;10.066;2022-12-07T09:21:33;11.65;;;6.30;;
5133;SDS011;2585;48.696;10.066;2022-12-07T09:24:00;11.52;;;7.15;;
5133;SDS011;2585;48.696;10.066;2022-12-07T09:26:27;15.90;;;8.05;;
5133;SDS011;2585;48.696;10.066;2022-12-07T09:28:53;10.48;;;7.30;;
5133;SDS011;2585;48.696;10.066;2022-12-07T09:31:20;11.10;;;6.47;;
5133;SDS011;2585;48.696;10.066;2022-12-07T09:33:53;10.27;;;6.93;;
5133;SDS011;2585;48.696;10.066;2022-12-07T09:36:25;10.05;;;6.10;;
5133;SDS011;2585;48.696;10.066;2022-12-07T09:38:52;9.90;;;7.07;;
5133;SDS011;2585;48.696;10.066;2022-12-07T09:41:20;9.80;;;6.78;;
5133;SDS011;2585;48.696;10.066;2022-12-07T09:43:48;10.60;;;6.30;;
5133;SDS011;2585;48.696;10.066;2022-12-07T09:46:16;10.80;;;6.80;;
5133;SDS011;2585;48.696;10.066;2022-12-07T09:48:46;12.00;;;7.78;;
5133;SDS011;2585;48.696;10.066;2022-12-07T09:51:17;9.27;;;6.32;;
5133;SDS011;2585;48.696;10.066;2022-12-07T09:53:51;16.20;;;7.32;;
5133;SDS011;2585;48.696;10.066;2022-12-07T09:56:20;9.15;;;6.50;;
5133;SDS011;2585;48.696;10.066;2022-12-07T09:58:49;9.75;;;6.72;;
5133;SDS011;2585;48.696;10.066;2022-12-07T10:01:18;9.23;;;6.30;;
5133;SDS011;2585;48.696;10.066;2022-12-07T10:03:50;8.82;;;6.30;;
5133;SDS011;2585;48.696;10.066;2022-12-07T10:06:20;11.68;;;6.82;;
5133;SDS011;2585;48.696;10.066;2022-12-07T10:08:47;8.05;;;5.70;;
5133;SDS011;2585;48.696;10.066;2022-12-07T10:11:14;11.48;;;6.93;;
5133;SDS011;2585;48.696;10.066;2022-12-07T10:13:52;11.05;;;6.50;;
5133;SDS011;2585;48.696;10.066;2022-12-07T10:18:50;8.13;;;5.88;;
5133;SDS011;2585;48.696;10.066;2022-12-07T10:21:18;10.15;;;6.35;;
5133;SDS011;2585;48.696;10.066;2022-12-07T10:29:23;10.38;;;6.53;;
5133;SDS011;2585;48.696;10.066;2022-12-07T10:31:59;9.32;;;6.32;;
5133;SDS011;2585;48.696;10.066;2022-12-07T10:39:50;9.27;;;6.15;;
5133;SDS011;2585;48.696;10.066;2022-12-07T10:42:28;10.18;;;6.25;;
5133;SDS011;2585;48.696;10.066;2022-12-07T10:45:15;10.05;;;6.50;;
5133;SDS011;2585;48.696;10.066;2022-12-07T10:51:05;12.73;;;9.20;;
5133;SDS011;2585;48.696;10.066;2022-12-07T10:58:57;12.30;;;6.10;;
5133;SDS011;2585;48.696;10.066;2022-12-07T11:04:33;8.65;;;5.90;;
5133;SDS011;2585;48.696;10.066;2022-12-07T11:07:22;9.80;;;6.53;;
5133;SDS011;2585;48.696;10.066;2022-12-07T11:10:05;8.20;;;5.75;;
5133;SDS011;2585;48.696;10.066;2022-12-07T11:18:59;8.75;;;6.18;;
5133;SDS011;2585;48.696;10.066;2022-12-07T11:27:19;8.98;;;6.20;;
5133;SDS011;2585;48.696;10.066;2022-12-07T11:37:55;8.93;;;6.15;;
5133;SDS011;2585;48.696;10.066;2022-12-07T11:40:28;8.52;;;5.75;;
5133;SDS011;2585;48.696;10.066;2022-12-07T11:43:02;10.48;;;6.63;;
5133;SDS011;2585;48.696;10.066;2022-12-07T11:45:37;10.05;;;5.13;;
5133;SDS011;2585;48.696;10.066;2022-12-07T11:48:15;7.93;;;5.90;;
5133;SDS011;2585;48.696;10.066;2022-12-07T11:50:56;6.90;;;5.80;;
5133;SDS011;2585;48.696;10.066;2022-12-07T12:03:47;9.60;;;5.50;;
5133;SDS011;2585;48.696;10.066;2022-12-07T12:06:18;8.23;;;5.30;;
5133;SDS011;2585;48.696;10.066;2022-12-07T12:08:47;6.50;;;5.00;;
5133;SDS011;2585;48.696;10.066;2022-12-07T12:20:21;8.05;;;5.30;;
5133;SDS011;2585;48.696;10.066;2022-12-07T12:23:07;7.43;;;4.82;;
5133;SDS011;2585;48.696;10.066;2022-12-07T12:25:43;10.25;;;6.13;;
5133;SDS011;2585;48.696;10.066;2022-12-07T12:31:12;8.20;;;5.68;;
5133;SDS011;2585;48.696;10.066;2022-12-07T12:36:51;12.85;;;7.43;;
5133;SDS011;2585;48.696;10.066;2022-12-07T12:39:18;18.20;;;7.97;;
5133;SDS011;2585;48.696;10.066;2022-12-07T12:51:51;7.38;;;5.07;;
5133;SDS011;2585;48.696;10.066;2022-12-07T12:54:26;11.68;;;6.03;;
5133;SDS011;2585;48.696;10.066;2022-12-07T12:56:55;8.05;;;4.80;;
5133;SDS011;2585;48.696;10.066;2022-12-07T12:59:36;7.15;;;5.65;;
5133;SDS011;2585;48.696;10.066;2022-12-07T13:13:34;13.02;;;6.57;;
5133;SDS011;2585;48.696;10.066;2022-12-07T13:31:37;7.53;;;4.60;;
5133;SDS011;2585;48.696;10.066;2022-12-07T13:37:10;9.40;;;5.63;;
5133;SDS011;2585;48.696;10.066;2022-12-07T13:39:52;6.85;;;4.70;;
5133;SDS011;2585;48.696;10.066;2022-12-07T13:42:25;7.93;;;5.00;;
5133;SDS011;2585;48.696;10.066;2022-12-07T13:44:55;6.93;;;4.82;;
5133;SDS011;2585;48.696;10.066;2022-12-07T13:47:32;8.25;;;5.75;;
5133;SDS011;2585;48.696;10.066;2022-12-07T13:52:54;5.95;;;4.63;;
5133;SDS011;2585;48.696;10.066;2022-12-07T13:55:23;7.75;;;5.10;;
5133;SDS011;2585;48.696;10.066;2022-12-07T13:57:51;7.47;;;4.90;;
5133;SDS011;2585;48.696;10.066;2022-12-07T14:00:29;6.65;;;4.72;;
5133;SDS011;2585;48.696;10.066;2022-12-07T14:03:00;7.22;;;4.63;;
5133;SDS011;2585;48.696;10.066;2022-12-07T14:05:29;6.43;;;4.32;;
5133;SDS011;2585;48.696;10.066;2022-12-07T14:08:01;9.73;;;5.53;;
5133;SDS011;2585;48.696;10.066;2022-12-07T14:10:41;9.65;;;5.20;;
5133;SDS011;2585;48.696;10.066;2022-12-07T14:13:29;10.77;;;6.00;;
5133;SDS011;2585;48.696;10.066;2022-12-07T14:18:56;11.43;;;5.20;;
5133;SDS011;2585;48.696;10.066;2022-12-07T14:21:26;9.52;;;5.97;;
5133;SDS011;2585;48.696;10.066;2022-12-07T14:26:49;8.55;;;6.38;;
5133;SDS011;2585;48.696;10.066;2022-12-07T14:31:52;7.32;;;5.45;;
5133;SDS011;2585;48.696;10.066;2022-12-07T14:34:20;7.35;;;5.00;;
5133;SDS011;2585;48.696;10.066;2022-12-07T14:36:47;12.77;;;5.55;;
5133;SDS011;2585;48.696;10.066;2022-12-07T14:39:14;8.77;;;5.03;;
5133;SDS011;2585;48.696;10.066;2022-12-07T14:41:41;13.40;;;5.75;;
5133;SDS011;2585;48.696;10.066;2022-12-07T14:44:18;8.00;;;4.93;;
5133;SDS011;2585;48.696;10.066;2022-12-07T14:46:50;7.75;;;5.03;;
5133;SDS011;2585;48.696;10.066;2022-12-07T14:49:37;6.70;;;4.82;;
5133;SDS011;2585;48.696;10.066;2022-12-07T14:52:04;9.65;;;5.90;;
5133;SDS011;2585;48.696;10.066;2022-12-07T14:54:56;7.25;;;5.28;;
5133;SDS011;2585;48.696;10.066;2022-12-07T14:57:23;7.50;;;5.35;;
5133;SDS011;2585;48.696;10.066;2022-12-07T14:59:50;8.82;;;6.40;;
5133;SDS011;2585;48.696;10.066;2022-12-07T15:02:17;8.05;;;5.50;;
5133;SDS011;2585;48.696;10.066;2022-12-07T15:04:43;9.38;;;6.00;;
5133;SDS011;2585;48.696;10.066;2022-12-07T15:07:19;11.43;;;6.05;;
5133;SDS011;2585;48.696;10.066;2022-12-07T15:09:47;10.80;;;7.00;;
5133;SDS011;2585;48.696;10.066;2022-12-07T15:12:14;10.35;;;6.20;;
5133;SDS011;2585;48.696;10.066;2022-12-07T15:14:41;7.95;;;5.78;;
5133;SDS011;2585;48.696;10.066;2022-12-07T15:17:09;8.82;;;6.30;;
5133;SDS011;2585;48.696;10.066;2022-12-07T15:19:51;9.57;;;6.75;;
5133;SDS011;2585;48.696;10.066;2022-12-07T15:22:18;15.13;;;8.88;;
5133;SDS011;2585;48.696;10.066;2022-12-07T15:24:44;16.55;;;10.75;;
5133;SDS011;2585;48.696;10.066;2022-12-07T15:27:11;14.95;;;9.38;;
5133;SDS011;2585;48.696;10.066;2022-12-07T15:29:38;13.50;;;9.07;;
5133;SDS011;2585;48.696;10.066;2022-12-07T15:32:05;14.07;;;8.50;;
5133;SDS011;2585;48.696;10.066;2022-12-07T15:34:31;11.05;;;8.65;;
5133;SDS011;2585;48.696;10.066;2022-12-07T15:37:05;13.18;;;8.35;;
5133;SDS011;2585;48.696;10.066;2022-12-07T15:39:32;11.18;;;8.40;;
5133;SDS011;2585;48.696;10.066;2022-12-07T15:41:59;13.25;;;7.90;;
5133;SDS011;2585;48.696;10.066;2022-12-07T15:44:26;13.15;;;8.85;;
5133;SDS011;2585;48.696;10.066;2022-12-07T15:47:11;14.43;;;8.23;;
5133;SDS011;2585;48.696;10.066;2022-12-07T15:49:38;11.90;;;8.27;;
5133;SDS011;2585;48.696;10.066;2022-12-07T15:52:05;11.60;;;8.38;;
5133;SDS011;2585;48.696;10.066;2022-12-07T15:54:32;13.27;;;9.05;;
5133;SDS011;2585;48.696;10.066;2022-12-07T15:56:59;15.32;;;8.82;;
5133;SDS011;2585;48.696;10.066;2022-12-07T15:59:26;12.68;;;8.05;;
5133;SDS011;2585;48.696;10.066;2022-12-07T16:01:54;12.05;;;7.93;;
5133;SDS011;2585;48.696;10.066;2022-12-07T16:04:22;13.23;;;8.15;;
5133;SDS011;2585;48.696;10.066;2022-12-07T16:06:49;14.98;;;8.68;;
5133;SDS011;2585;48.696;10.066;2022-12-07T16:09:17;13.23;;;8.45;;
5133;SDS011;2585;48.696;10.066;2022-12-07T16:11:44;11.10;;;7.93;;
5133;SDS011;2585;48.696;10.066;2022-12-07T16:14:11;10.98;;;6.68;;
5133;SDS011;2585;48.696;10.066;2022-12-07T16:16:38;12.30;;;8.40;;
5133;SDS011;2585;48.696;10.066;2022-12-07T16:19:06;16.38;;;9.63;;
5133;SDS011;2585;48.696;10.066;2022-12-07T16:21:34;19.08;;;12.55;;
5133;SDS011;2585;48.696;10.066;2022-12-07T16:24:01;15.50;;;9.82;;
5133;SDS011;2585;48.696;10.066;2022-12-07T16:26:29;17.15;;;9.45;;
5133;SDS011;2585;48.696;10.066;2022-12-07T16:28:56;17.02;;;10.15;;
5133;SDS011;2585;48.696;10.066;2022-12-07T16:31:24;15.02;;;9.95;;
5133;SDS011;2585;48.696;10.066;2022-12-07T16:33:55;14.38;;;9.50;;
5133;SDS011;2585;48.696;10.066;2022-12-07T16:36:24;14.10;;;8.70;;
5133;SDS011;2585;48.696;10.066;2022-12-07T16:39:12;15.73;;;9.90;;
5133;SDS011;2585;48.696;10.066;2022-12-07T16:41:39;18.48;;;10.93;;
5133;SDS011;2585;48.696;10.066;2022-12-07T16:44:06;12.93;;;9.60;;
5133;SDS011;2585;48.696;10.066;2022-12-07T16:46:36;17.27;;;10.93;;
5133;SDS011;2585;48.696;10.066;2022-12-07T16:49:03;15.95;;;10.70;;
5133;SDS011;2585;48.696;10.066;2022-12-07T16:51:31;15.20;;;10.23;;
5133;SDS011;2585;48.696;10.066;2022-12-07T16:53:59;24.05;;;10.73;;
5133;SDS011;2585;48.696;10.066;2022-12-07T16:56:25;18.23;;;10.32;;
5133;SDS011;2585;48.696;10.066;2022-12-07T16:58:53;15.32;;;9.35;;
5133;SDS011;2585;48.696;10.066;2022-12-07T17:01:21;12.45;;;8.43;;
5133;SDS011;2585;48.696;10.066;2022-12-07T17:03:54;14.30;;;9.30;;
5133;SDS011;2585;48.696;10.066;2022-12-07T17:06:23;25.42;;;11.15;;
5133;SDS011;2585;48.696;10.066;2022-12-07T17:08:51;18.17;;;9.15;;
5133;SDS011;2585;48.696;10.066;2022-12-07T17:11:20;15.43;;;9.60;;
5133;SDS011;2585;48.696;10.066;2022-12-07T17:13:49;14.88;;;10.18;;
5133;SDS011;2585;48.696;10.066;2022-12-07T17:16:35;14.65;;;8.65;;
5133;SDS011;2585;48.696;10.066;2022-12-07T17:19:06;18.95;;;8.63;;
5133;SDS011;2585;48.696;10.066;2022-12-07T17:21:34;18.40;;;13.30;;
5133;SDS011;2585;48.696;10.066;2022-12-07T17:24:02;17.45;;;11.50;;
5133;SDS011;2585;48.696;10.066;2022-12-07T17:26:32;14.65;;;9.52;;
5133;SDS011;2585;48.696;10.066;2022-12-07T17:29:01;15.45;;;10.30;;
5133;SDS011;2585;48.696;10.066;2022-12-07T17:31:29;15.30;;;8.98;;
5133;SDS011;2585;48.696;10.066;2022-12-07T17:33:56;14.38;;;9.45;;
5133;SDS011;2585;48.696;10.066;2022-12-07T17:36:25;14.63;;;8.88;;
5133;SDS011;2585;48.696;10.066;2022-12-07T17:38:53;16.10;;;10.23;;
5133;SDS011;2585;48.696;10.066;2022-12-07T17:44:13;21.63;;;12.57;;
5133;SDS011;2585;48.696;10.066;2022-12-07T17:46:43;22.90;;;14.15;;
5133;SDS011;2585;48.696;10.066;2022-12-07T17:49:11;33.42;;;17.25;;
5133;SDS011;2585;48.696;10.066;2022-12-07T17:51:37;33.58;;;18.63;;